Time;durP1;ratioP1;P1;durP2;ratioP2;P2;SDS_P1;SDS_P2;PMS_P1;PMS_P2;Temp;Humidity;BMP_temperature;BMP_pressure;BME280_temperature;BME280_humidity;BME280_pressure;Samples;Min_cycle;Max_cycle;Signal;HPM_P1;HPM_P2
2021/12/14 00:02:07;;;;;;;22.48;15.35;;;;;;;;;;5034029;28;20032;-83
2021/12/14 00:04:35;;;;;;;24.60;15.55;;;;;;;;;;5033210;28;20033;-83
2021/12/14 00:07:05;;;;;;;22.60;15.30;;;;;;;;;;5034432;28;20037;-82
2021/12/14 00:09:35;;;;;;;24.17;15.15;;;;;;;;;;5037116;28;20029;-82
2021/12/14 00:17:07;;;;;;;25.23;15.50;;;;;;;;;;5038600;28;20112;-82
2021/12/14 00:19:33;;;;;;;24.52;15.60;;;;;;;;;;5038322;28;20022;-82
2021/12/14 00:22:06;;;;;;;23.40;13.85;;;;;;;;;;5036574;28;20039;-83
2021/12/14 00:24:33;;;;;;;22.25;14.20;;;;;;;;;;5036687;28;20032;-82
2021/12/14 00:27:01;;;;;;;23.90;15.05;;;;;;;;;;5037864;28;20399;-82
2021/12/14 00:29:36;;;;;;;25.05;16.23;;;;;;;;;;5036689;28;20025;-82
2021/12/14 00:32:04;;;;;;;23.15;15.45;;;;;;;;;;5036354;28;20120;-82
2021/12/14 00:34:37;;;;;;;25.20;15.75;;;;;;;;;;5036585;28;20072;-83
2021/12/14 00:37:03;;;;;;;;;;;;;;;;;;5036809;28;20034;-82
2021/12/14 00:39:29;;;;;;;25.45;14.73;;;;;;;;;;5036901;28;19905;-82
2021/12/14 00:41:55;;;;;;;23.10;15.25;;;;;;;;;;5037327;28;20049;-82
2021/12/14 00:44:21;;;;;;;25.05;14.75;;;;;;;;;;5037632;28;20087;-81
2021/12/14 00:46:47;;;;;;;22.38;15.00;;;;;;;;;;5037429;28;20026;-82
2021/12/14 00:49:14;;;;;;;24.98;15.05;;;;;;;;;;5038158;28;20025;-82
2021/12/14 00:51:40;;;;;;;24.83;15.35;;;;;;;;;;5036199;28;20553;-82
2021/12/14 00:54:10;;;;;;;24.95;15.68;;;;;;;;;;5037514;28;20130;-82
2021/12/14 00:56:36;;;;;;;27.00;16.00;;;;;;;;;;5037607;28;20030;-82
2021/12/14 00:59:03;;;;;;;23.55;14.85;;;;;;;;;;5052928;28;20095;-82
2021/12/14 01:01:31;;;;;;;21.65;14.88;;;;;;;;;;5037496;28;20037;-82
2021/12/14 01:03:59;;;;;;;24.35;14.20;;;;;;;;;;5035939;28;20029;-82
2021/12/14 01:06:27;;;;;;;23.17;14.93;;;;;;;;;;5035652;28;20399;-82
2021/12/14 01:08:53;;;;;;;21.80;14.63;;;;;;;;;;5037273;28;20026;-82
2021/12/14 01:11:24;;;;;;;23.80;15.07;;;;;;;;;;5036946;28;20032;-82
2021/12/14 01:14:02;;;;;;;21.35;13.73;;;;;;;;;;5036067;28;20036;-82
2021/12/14 01:16:36;;;;;;;23.17;14.95;;;;;;;;;;5037380;28;20056;-82
2021/12/14 01:19:21;;;;;;;20.83;13.65;;;;;;;;;;5036157;28;20025;-82
2021/12/14 01:24:42;;;;;;;22.75;13.93;;;;;;;;;;5036596;28;20033;-82
2021/12/14 01:27:12;;;;;;;24.17;14.10;;;;;;;;;;5036374;28;20121;-82
2021/12/14 01:29:39;;;;;;;22.52;12.80;;;;;;;;;;5036876;28;20450;-82
2021/12/14 01:32:07;;;;;;;20.98;13.65;;;;;;;;;;5035174;28;20045;-82
2021/12/14 01:34:35;;;;;;;23.60;14.35;;;;;;;;;;5037270;28;20025;-81
2021/12/14 01:37:06;;;;;;;19.83;13.05;;;;;;;;;;5035381;28;20091;-82
2021/12/14 01:39:48;;;;;;;20.48;13.75;;;;;;;;;;5035199;28;20030;-82
2021/12/14 01:42:14;;;;;;;24.67;14.02;;;;;;;;;;5035012;28;20049;-82
2021/12/14 01:44:45;;;;;;;21.13;14.57;;;;;;;;;;5035598;28;20561;-82
2021/12/14 01:47:14;;;;;;;23.15;14.65;;;;;;;;;;5035979;28;20029;-82
2021/12/14 01:49:41;;;;;;;22.17;14.40;;;;;;;;;;5035792;28;20075;-82
2021/12/14 01:52:10;;;;;;;24.92;14.52;;;;;;;;;;5035437;28;20033;-82
2021/12/14 01:54:38;;;;;;;21.20;13.57;;;;;;;;;;5036427;28;20036;-82
2021/12/14 01:57:07;;;;;;;20.80;13.90;;;;;;;;;;5035732;28;20033;-82
2021/12/14 01:59:38;;;;;;;22.80;14.40;;;;;;;;;;5035222;28;20116;-82
2021/12/14 02:02:21;;;;;;;21.75;13.77;;;;;;;;;;5036607;28;20060;-82
2021/12/14 02:04:49;;;;;;;22.67;14.55;;;;;;;;;;5032441;28;20083;-82
2021/12/14 02:07:16;;;;;;;20.38;13.30;;;;;;;;;;5045938;28;20033;-82
2021/12/14 02:09:42;;;;;;;20.95;13.30;;;;;;;;;;5036466;28;20349;-82
2021/12/14 02:12:13;;;;;;;19.52;13.63;;;;;;;;;;5035801;28;20026;-82
2021/12/14 02:14:40;;;;;;;22.15;13.73;;;;;;;;;;5035482;28;20032;-82
2021/12/14 02:17:07;;;;;;;22.08;14.88;;;;;;;;;;5035409;28;20025;-82
2021/12/14 02:19:34;;;;;;;24.23;13.65;;;;;;;;;;5036100;28;20025;-82
2021/12/14 02:22:01;;;;;;;21.70;13.45;;;;;;;;;;5034727;28;20025;-82
2021/12/14 02:24:28;;;;;;;21.40;14.25;;;;;;;;;;5035051;28;20033;-82
2021/12/14 02:26:55;;;;;;;20.70;13.15;;;;;;;;;;5034300;28;20422;-83
2021/12/14 02:29:26;;;;;;;21.17;14.32;;;;;;;;;;5033715;28;20509;-82
2021/12/14 02:31:53;;;;;;;21.17;13.55;;;;;;;;;;5036376;28;20026;-82
2021/12/14 02:34:20;;;;;;;22.60;13.85;;;;;;;;;;5034092;28;20033;-82
2021/12/14 02:36:47;;;;;;;23.88;13.60;;;;;;;;;;5035514;28;20110;-82
2021/12/14 02:42:19;;;;;;;19.45;14.00;;;;;;;;;;4955316;29;20039;-82
2021/12/14 02:44:47;;;;;;;20.02;13.27;;;;;;;;;;4947802;28;20077;-82
2021/12/14 02:47:16;;;;;;;22.45;14.57;;;;;;;;;;4954932;28;20024;-82
2021/12/14 02:49:43;;;;;;;20.67;13.43;;;;;;;;;;4939034;29;20023;-82
2021/12/14 02:52:10;;;;;;;20.13;13.63;;;;;;;;;;4955721;28;20030;-82
2021/12/14 02:54:45;;;;;;;21.58;14.00;;;;;;;;;;4954681;29;20031;-82
2021/12/14 02:57:13;;;;;;;20.73;12.57;;;;;;;;;;4938738;29;20508;-82
2021/12/14 02:59:42;;;;;;;21.63;13.15;;;;;;;;;;4939086;29;20190;-81
2021/12/14 03:02:13;;;;;;;22.05;14.88;;;;;;;;;;4955071;29;20031;-81
2021/12/14 03:04:40;;;;;;;21.02;13.07;;;;;;;;;;4938616;29;20103;-81
2021/12/14 03:07:06;;;;;;;20.60;12.63;;;;;;;;;;4952436;28;20122;-81
2021/12/14 03:09:53;;;;;;;22.52;13.68;;;;;;;;;;4954664;29;20031;-82
2021/12/14 03:12:19;;;;;;;22.15;13.38;;;;;;;;;;4954840;29;20027;-82
2021/12/14 03:14:54;;;;;;;22.45;13.88;;;;;;;;;;4938226;29;20541;-82
2021/12/14 03:17:20;;;;;;;18.83;12.70;;;;;;;;;;4965713;28;20041;-82
2021/12/14 03:20:13;;;;;;;21.05;13.25;;;;;;;;;;5035678;28;20018;-82
2021/12/14 03:22:41;;;;;;;19.92;13.02;;;;;;;;;;5034504;28;20040;-82
2021/12/14 03:25:08;;;;;;;20.52;13.95;;;;;;;;;;5035306;28;20026;-82
2021/12/14 03:27:37;;;;;;;21.98;13.65;;;;;;;;;;5033524;28;20040;-82
2021/12/14 03:30:06;;;;;;;21.52;13.15;;;;;;;;;;5035268;28;20028;-81
2021/12/14 03:32:34;;;;;;;21.02;13.25;;;;;;;;;;5033984;28;20091;-81
2021/12/14 03:35:00;;;;;;;20.58;13.20;;;;;;;;;;5034359;28;20025;-82
2021/12/14 03:37:27;;;;;;;19.00;12.90;;;;;;;;;;5034135;28;20403;-82
2021/12/14 03:39:58;;;;;;;21.05;14.20;;;;;;;;;;5035892;28;20021;-82
2021/12/14 03:42:36;;;;;;;20.60;13.40;;;;;;;;;;5035845;28;20050;-82
2021/12/14 03:45:04;;;;;;;19.27;12.82;;;;;;;;;;5039335;28;20017;-82
2021/12/14 03:47:35;;;;;;;20.70;13.02;;;;;;;;;;5038637;28;20034;-82
2021/12/14 03:50:10;;;;;;;20.52;13.45;;;;;;;;;;5039515;28;20021;-82
2021/12/14 03:52:37;;;;;;;23.00;13.43;;;;;;;;;;5037517;28;20022;-82
2021/12/14 03:55:07;;;;;;;19.58;12.88;;;;;;;;;;5037450;28;20472;-82
2021/12/14 03:57:33;;;;;;;20.23;11.80;;;;;;;;;;5038311;28;20025;-82
2021/12/14 03:59:59;;;;;;;21.27;14.23;;;;;;;;;;5038724;28;20140;-82
2021/12/14 04:02:25;;;;;;;20.55;14.07;;;;;;;;;;5036723;28;20053;-82
2021/12/14 04:05:02;;;;;;;19.15;12.93;;;;;;;;;;5038496;28;20026;-82
2021/12/14 04:07:29;;;;;;;20.98;13.52;;;;;;;;;;5037290;28;20033;-82
2021/12/14 04:09:55;;;;;;;23.10;13.43;;;;;;;;;;5038142;28;20025;-82
2021/12/14 04:12:21;;;;;;;20.92;13.32;;;;;;;;;;5037998;28;20528;-82
2021/12/14 04:14:49;;;;;;;20.92;14.55;;;;;;;;;;5038180;28;20067;-83
2021/12/14 04:17:16;;;;;;;25.52;14.70;;;;;;;;;;5037844;28;20079;-82
2021/12/14 04:19:42;;;;;;;20.70;12.57;;;;;;;;;;5037385;28;20033;-82
2021/12/14 04:22:12;;;;;;;21.77;13.57;;;;;;;;;;5038683;28;20036;-82
2021/12/14 04:24:39;;;;;;;20.90;13.07;;;;;;;;;;5038120;28;20022;-82
2021/12/14 04:27:07;;;;;;;20.00;12.40;;;;;;;;;;5038887;28;20494;-82
2021/12/14 04:29:34;;;;;;;20.55;13.38;;;;;;;;;;5038608;28;20040;-82
2021/12/14 04:32:00;;;;;;;18.95;13.35;;;;;;;;;;5039170;28;20021;-82
2021/12/14 04:34:29;;;;;;;19.08;11.93;;;;;;;;;;5036262;28;20514;-82
2021/12/14 04:36:55;;;;;;;21.73;13.25;;;;;;;;;;5033738;28;20018;-81
2021/12/14 04:53:12;;;;;;;18.35;11.07;;;;;;;;;;5040555;28;20036;-81
2021/12/14 04:55:40;;;;;;;18.77;12.45;;;;;;;;;;5037771;28;20026;-81
2021/12/14 04:58:06;;;;;;;18.75;11.45;;;;;;;;;;5037126;28;20039;-82
2021/12/14 05:00:38;;;;;;;19.60;11.63;;;;;;;;;;5036482;28;20029;-82
2021/12/14 05:03:11;;;;;;;18.52;13.15;;;;;;;;;;5037537;28;20502;-82
2021/12/14 05:05:44;;;;;;;21.50;12.13;;;;;;;;;;5037383;28;20034;-82
2021/12/14 05:10:37;;;;;;;20.00;11.43;;;;;;;;;;5037616;28;20368;-82
2021/12/14 05:13:03;;;;;;;21.05;12.40;;;;;;;;;;5037355;28;20028;-82
2021/12/14 05:15:29;;;;;;;19.45;12.15;;;;;;;;;;5035447;28;20533;-82
2021/12/14 05:17:55;;;;;;;17.75;11.95;;;;;;;;;;5036735;28;20037;-81
2021/12/14 05:20:21;;;;;;;20.65;12.77;;;;;;;;;;5035120;28;20026;-82
2021/12/14 05:22:47;;;;;;;18.63;12.05;;;;;;;;;;5034528;28;20040;-81
2021/12/14 05:25:18;;;;;;;17.88;11.23;;;;;;;;;;5035464;28;20117;-82
2021/12/14 05:27:50;;;;;;;18.70;11.38;;;;;;;;;;5036155;28;20045;-82
2021/12/14 05:30:16;;;;;;;20.35;12.45;;;;;;;;;;5036320;28;20064;-82
2021/12/14 05:32:43;;;;;;;19.17;11.18;;;;;;;;;;5036712;28;20499;-81
2021/12/14 05:35:11;;;;;;;20.20;12.25;;;;;;;;;;5033590;28;20005;-82
2021/12/14 05:37:45;;;;;;;18.83;12.40;;;;;;;;;;5037228;28;20260;-81
2021/12/14 05:40:20;;;;;;;20.13;12.00;;;;;;;;;;5035861;28;20025;-82
2021/12/14 05:45:32;;;;;;;20.27;11.70;;;;;;;;;;5035200;28;20080;-81
2021/12/14 05:48:03;;;;;;;20.30;11.52;;;;;;;;;;5034670;28;20021;-81
2021/12/14 05:50:50;;;;;;;18.75;11.50;;;;;;;;;;5034176;28;20021;-81
2021/12/14 05:53:21;;;;;;;18.67;11.90;;;;;;;;;;5033320;28;20078;-81
2021/12/14 05:55:47;;;;;;;20.83;12.60;;;;;;;;;;5034975;28;20265;-81
2021/12/14 05:58:15;;;;;;;18.83;11.40;;;;;;;;;;5033644;28;20144;-81
2021/12/14 06:00:44;;;;;;;18.23;11.68;;;;;;;;;;5033177;28;20048;-81
2021/12/14 06:03:15;;;;;;;20.63;12.68;;;;;;;;;;5035760;28;20017;-81
2021/12/14 06:05:41;;;;;;;17.60;11.60;;;;;;;;;;5035899;28;20044;-81
2021/12/14 06:08:07;;;;;;;19.63;11.50;;;;;;;;;;5036058;28;20495;-82
2021/12/14 06:10:34;;;;;;;18.38;12.13;;;;;;;;;;5035169;28;20094;-81
2021/12/14 06:13:00;;;;;;;17.20;11.50;;;;;;;;;;5050665;28;20032;-81
2021/12/14 06:15:28;;;;;;;17.15;11.43;;;;;;;;;;5034547;28;20026;-81
2021/12/14 06:17:55;;;;;;;17.98;12.07;;;;;;;;;;5035515;28;20052;-81
2021/12/14 06:20:24;;;;;;;18.60;11.68;;;;;;;;;;5033866;28;20052;-81
2021/12/14 06:22:52;;;;;;;18.25;11.85;;;;;;;;;;5035005;28;20021;-81
2021/12/14 06:25:23;;;;;;;18.10;11.85;;;;;;;;;;5032359;28;20018;-81
2021/12/14 06:27:49;;;;;;;18.67;11.93;;;;;;;;;;5034782;28;20029;-81
2021/12/14 06:30:18;;;;;;;20.00;12.30;;;;;;;;;;5033534;28;20076;-81
2021/12/14 06:32:45;;;;;;;19.83;12.10;;;;;;;;;;5050549;28;20029;-81
2021/12/14 06:35:18;;;;;;;20.90;12.65;;;;;;;;;;5034172;28;20140;-81
2021/12/14 06:40:43;;;;;;;17.77;11.77;;;;;;;;;;5035391;28;20517;-81
2021/12/14 06:43:12;;;;;;;18.40;12.23;;;;;;;;;;5034584;28;20029;-82
2021/12/14 06:45:40;;;;;;;18.15;12.35;;;;;;;;;;5034548;28;20021;-81
2021/12/14 06:48:20;;;;;;;20.55;12.43;;;;;;;;;;5034447;28;20037;-81
2021/12/14 06:50:51;;;;;;;18.60;11.90;;;;;;;;;;5035390;28;20434;-81
2021/12/14 06:53:19;;;;;;;19.15;12.38;;;;;;;;;;5034527;28;20057;-81
2021/12/14 06:55:45;;;;;;;20.75;12.85;;;;;;;;;;5035796;28;20090;-81
2021/12/14 06:58:11;;;;;;;19.70;11.95;;;;;;;;;;5034502;28;20049;-81
2021/12/14 07:00:40;;;;;;;18.58;11.48;;;;;;;;;;5034098;28;20471;-81
2021/12/14 07:03:06;;;;;;;21.60;12.80;;;;;;;;;;5036831;28;20064;-82
2021/12/14 07:05:32;;;;;;;18.52;12.75;;;;;;;;;;5035232;28;20048;-81
2021/12/14 07:07:59;;;;;;;22.40;13.70;;;;;;;;;;5035465;28;20503;-81
2021/12/14 07:10:25;;;;;;;21.58;13.50;;;;;;;;;;5035764;28;20029;-81
2021/12/14 07:12:52;;;;;;;20.88;13.45;;;;;;;;;;5035823;28;20449;-81
2021/12/14 07:15:25;;;;;;;23.73;13.27;;;;;;;;;;5035413;28;20028;-82
2021/12/14 07:18:03;;;;;;;21.30;13.48;;;;;;;;;;5038223;28;20154;-81
2021/12/14 07:20:29;;;;;;;21.38;13.00;;;;;;;;;;5038824;28;20033;-82
2021/12/14 07:23:04;;;;;;;21.65;14.05;;;;;;;;;;5038276;28;20029;-81
2021/12/14 07:25:37;;;;;;;22.27;13.32;;;;;;;;;;5053598;28;20037;-81
2021/12/14 07:28:08;;;;;;;21.35;13.48;;;;;;;;;;5038516;28;20140;-81
2021/12/14 07:30:37;;;;;;;23.20;13.40;;;;;;;;;;5038867;28;20029;-81
2021/12/14 07:33:09;;;;;;;22.75;13.95;;;;;;;;;;5039772;28;20525;-81
2021/12/14 07:35:41;;;;;;;23.52;14.23;;;;;;;;;;5039717;28;20505;-81
2021/12/14 07:38:16;;;;;;;24.25;14.07;;;;;;;;;;5039333;28;20029;-82
2021/12/14 07:40:45;;;;;;;20.90;13.65;;;;;;;;;;5039422;28;20046;-83
2021/12/14 07:43:15;;;;;;;23.25;13.43;;;;;;;;;;5038671;28;20430;-82
2021/12/14 07:45:42;;;;;;;24.08;14.18;;;;;;;;;;5038590;28;20029;-82
2021/12/14 07:48:08;;;;;;;20.52;13.02;;;;;;;;;;5039617;28;20048;-82
2021/12/14 07:50:43;;;;;;;24.15;14.10;;;;;;;;;;5040116;28;20025;-82
2021/12/14 07:53:09;;;;;;;24.55;13.60;;;;;;;;;;5039665;28;20017;-83
2021/12/14 07:55:43;;;;;;;22.65;14.38;;;;;;;;;;5050945;28;20033;-82
2021/12/14 07:58:10;;;;;;;21.85;12.57;;;;;;;;;;5058680;28;20050;-82
2021/12/14 08:00:40;;;;;;;24.33;13.10;;;;;;;;;;5054718;28;20025;-83
2021/12/14 08:03:07;;;;;;;20.42;14.05;;;;;;;;;;5048660;28;20017;-82
2021/12/14 08:05:40;;;;;;;19.88;12.52;;;;;;;;;;5050954;28;20021;-82
2021/12/14 08:08:15;;;;;;;23.67;13.82;;;;;;;;;;5052407;28;20033;-82
2021/12/14 08:10:45;;;;;;;23.17;13.52;;;;;;;;;;5039591;28;20026;-83
2021/12/14 08:13:29;;;;;;;20.95;13.43;;;;;;;;;;5052784;28;20028;-83
2021/12/14 08:15:57;;;;;;;21.33;13.00;;;;;;;;;;5038845;28;20032;-82
2021/12/14 08:18:25;;;;;;;18.50;12.13;;;;;;;;;;5038115;28;20040;-81
2021/12/14 08:21:03;;;;;;;21.42;13.80;;;;;;;;;;5036564;28;20029;-82
2021/12/14 08:23:34;;;;;;;20.58;14.23;;;;;;;;;;5036611;28;20033;-81
2021/12/14 08:26:04;;;;;;;23.60;13.95;;;;;;;;;;5025648;28;20025;-81
2021/12/14 08:28:30;;;;;;;25.90;16.45;;;;;;;;;;5036323;28;20060;-82
2021/12/14 08:31:03;;;;;;;24.60;15.15;;;;;;;;;;5037420;28;20021;-81
2021/12/14 08:33:30;;;;;;;27.17;15.90;;;;;;;;;;5038720;28;20472;-82
2021/12/14 08:36:02;;;;;;;25.27;15.07;;;;;;;;;;5040626;28;20025;-81
2021/12/14 08:38:31;;;;;;;23.25;14.35;;;;;;;;;;5048615;28;20499;-81
2021/12/14 08:41:01;;;;;;;22.73;14.68;;;;;;;;;;5049473;28;20072;-81
2021/12/14 08:43:33;;;;;;;23.23;15.02;;;;;;;;;;5054829;28;20035;-81
2021/12/14 08:46:09;;;;;;;22.40;13.68;;;;;;;;;;5052810;28;20028;-81
2021/12/14 08:48:37;;;;;;;20.90;12.32;;;;;;;;;;5032078;28;20029;-81
2021/12/14 08:51:13;;;;;;;18.77;11.98;;;;;;;;;;5037905;28;20021;-81
2021/12/14 08:53:40;;;;;;;18.25;13.07;;;;;;;;;;5037791;28;20033;-83
2021/12/14 08:56:07;;;;;;;19.75;13.80;;;;;;;;;;5038965;28;20053;-82
2021/12/14 08:58:34;;;;;;;20.42;12.52;;;;;;;;;;5034868;28;20024;-82
2021/12/14 09:01:06;;;;;;;20.27;13.02;;;;;;;;;;5028362;28;20037;-82
2021/12/14 09:03:35;;;;;;;20.58;13.30;;;;;;;;;;5035660;28;20095;-82
2021/12/14 09:06:05;;;;;;;19.48;12.45;;;;;;;;;;5038045;28;20021;-82
2021/12/14 09:08:31;;;;;;;20.00;13.35;;;;;;;;;;5037665;28;20037;-82
2021/12/14 09:10:57;;;;;;;18.15;12.57;;;;;;;;;;5037401;28;20370;-83
2021/12/14 09:13:24;;;;;;;20.05;13.13;;;;;;;;;;5037247;28;20104;-82
2021/12/14 09:15:52;;;;;;;19.23;13.50;;;;;;;;;;5036720;28;20380;-82
2021/12/14 09:18:19;;;;;;;20.63;13.65;;;;;;;;;;5038035;28;20025;-82
2021/12/14 09:21:11;;;;;;;18.10;12.35;;;;;;;;;;5036400;28;20026;-82
2021/12/14 09:23:40;;;;;;;19.20;12.17;;;;;;;;;;5035309;28;20041;-82
2021/12/14 09:26:08;;;;;;;18.70;11.55;;;;;;;;;;5037353;28;20029;-82
2021/12/14 09:28:38;;;;;;;16.70;10.90;;;;;;;;;;5036169;28;20156;-82
2021/12/14 09:31:08;;;;;;;17.00;10.95;;;;;;;;;;5036183;28;20545;-82
2021/12/14 09:33:36;;;;;;;19.20;13.30;;;;;;;;;;5035980;28;20128;-82
2021/12/14 09:36:08;;;;;;;20.35;12.60;;;;;;;;;;5037980;28;20072;-82
2021/12/14 09:38:40;;;;;;;19.73;13.80;;;;;;;;;;5037190;28;20537;-82
2021/12/14 09:41:07;;;;;;;19.42;12.50;;;;;;;;;;5037250;28;20045;-82
2021/12/14 09:43:33;;;;;;;21.30;12.35;;;;;;;;;;5037224;28;20108;-82
2021/12/14 09:46:00;;;;;;;17.30;11.63;;;;;;;;;;5036718;28;20483;-82
2021/12/14 09:48:28;;;;;;;18.27;12.20;;;;;;;;;;5035562;28;20095;-82
2021/12/14 09:50:57;;;;;;;15.25;10.73;;;;;;;;;;5037072;28;20025;-82
2021/12/14 09:53:25;;;;;;;17.90;11.43;;;;;;;;;;5035790;28;20025;-82
2021/12/14 09:55:54;;;;;;;16.88;11.20;;;;;;;;;;5035798;28;20033;-82
2021/12/14 09:58:22;;;;;;;17.77;11.27;;;;;;;;;;5037185;28;20424;-82
2021/12/14 10:00:50;;;;;;;16.25;11.80;;;;;;;;;;5037101;28;20040;-82
2021/12/14 10:03:17;;;;;;;19.10;12.35;;;;;;;;;;5036263;28;20044;-81
2021/12/14 10:05:51;;;;;;;17.73;11.65;;;;;;;;;;5035336;28;20048;-82
2021/12/14 10:08:21;;;;;;;16.65;11.18;;;;;;;;;;5035968;28;20063;-82
2021/12/14 10:10:52;;;;;;;16.83;11.95;;;;;;;;;;5037432;28;20033;-82
2021/12/14 10:13:19;;;;;;;15.85;9.85;;;;;;;;;;5036695;28;20024;-82
2021/12/14 10:15:53;;;;;;;16.77;11.40;;;;;;;;;;5035279;28;20037;-82
2021/12/14 10:18:24;;;;;;;17.77;12.05;;;;;;;;;;5037193;28;20028;-82
2021/12/14 10:20:56;;;;;;;14.50;10.82;;;;;;;;;;5034789;28;20495;-82
2021/12/14 10:23:23;;;;;;;17.40;11.05;;;;;;;;;;5035067;28;20123;-82
2021/12/14 10:25:50;;;;;;;17.65;10.85;;;;;;;;;;5035218;28;20025;-82
2021/12/14 10:28:16;;;;;;;17.10;10.38;;;;;;;;;;5034675;28;20041;-81
2021/12/14 10:30:45;;;;;;;15.77;10.25;;;;;;;;;;5034659;28;20036;-82
2021/12/14 10:33:12;;;;;;;17.00;10.93;;;;;;;;;;5037099;28;20029;-82
2021/12/14 10:35:44;;;;;;;16.40;10.98;;;;;;;;;;5034058;28;20032;-82
2021/12/14 10:38:40;;;;;;;17.38;11.57;;;;;;;;;;5035500;28;20219;-82
2021/12/14 10:43:58;;;;;;;14.52;10.85;;;;;;;;;;5036549;28;20104;-82
2021/12/14 10:46:28;;;;;;;16.67;10.75;;;;;;;;;;5035291;28;20025;-82
2021/12/14 10:48:55;;;;;;;17.35;10.82;;;;;;;;;;5035409;28;20028;-82
2021/12/14 10:51:26;;;;;;;17.02;11.45;;;;;;;;;;5035255;28;20021;-83
2021/12/14 10:53:54;;;;;;;19.77;13.00;;;;;;;;;;5035949;28;20021;-82
2021/12/14 10:56:23;;;;;;;17.10;11.50;;;;;;;;;;5036100;28;20025;-81
2021/12/14 10:58:50;;;;;;;16.15;11.10;;;;;;;;;;5036444;28;20021;-82
2021/12/14 11:01:18;;;;;;;16.42;10.73;;;;;;;;;;5035667;28;20037;-82
2021/12/14 11:03:46;;;;;;;15.25;11.00;;;;;;;;;;5032874;28;20104;-82
2021/12/14 11:06:14;;;;;;;14.50;10.15;;;;;;;;;;5035027;28;20479;-82
2021/12/14 11:08:56;;;;;;;15.23;11.07;;;;;;;;;;5034680;28;20029;-83
2021/12/14 11:11:31;;;;;;;17.60;11.40;;;;;;;;;;5034652;28;20026;-82
2021/12/14 11:14:01;;;;;;;14.82;10.25;;;;;;;;;;5035799;28;20030;-82
2021/12/14 11:18:08;;;;;;;16.98;10.90;;;;;;;;;;5034520;28;20077;-82
2021/12/14 11:19:19;;;;;;;15.73;11.38;;;;;;;;;;5035639;28;20052;-82
2021/12/14 11:21:45;;;;;;;15.38;10.57;;;;;;;;;;5034065;28;20017;-82
2021/12/14 11:24:11;;;;;;;19.10;10.75;;;;;;;;;;5035824;28;20034;-81
2021/12/14 11:26:37;;;;;;;14.05;9.77;;;;;;;;;;5035370;28;20052;-81
2021/12/14 11:29:10;;;;;;;16.08;10.13;;;;;;;;;;5035223;28;20037;-82
2021/12/14 11:31:36;;;;;;;15.77;10.43;;;;;;;;;;5036016;28;20017;-83
2021/12/14 11:34:02;;;;;;;14.75;10.30;;;;;;;;;;5035580;28;20095;-82
2021/12/14 11:36:32;;;;;;;15.27;10.00;;;;;;;;;;5034735;28;20053;-82
2021/12/14 11:39:18;;;;;;;15.27;10.02;;;;;;;;;;5035494;28;20507;-82
2021/12/14 11:41:50;;;;;;;16.23;11.77;;;;;;;;;;5035145;28;20096;-82
2021/12/14 11:44:22;;;;;;;15.15;10.85;;;;;;;;;;5034271;28;20074;-82
2021/12/14 11:47:11;;;;;;;15.40;10.70;;;;;;;;;;5035360;28;20029;-83
2021/12/14 11:49:56;;;;;;;14.63;10.48;;;;;;;;;;5004898;28;20033;-85
2021/12/14 11:52:40;;;;;;;15.73;10.07;;;;;;;;;;5036674;28;20048;-85
2021/12/14 11:55:16;;;;;;;13.60;9.65;;;;;;;;;;5035847;28;20032;-85
2021/12/14 11:57:42;;;;;;;15.25;10.07;;;;;;;;;;5035007;28;20033;-84
2021/12/14 12:00:11;;;;;;;15.48;10.32;;;;;;;;;;5034015;28;20029;-83
2021/12/14 12:02:38;;;;;;;14.90;10.18;;;;;;;;;;5034982;28;20022;-83
2021/12/14 12:05:21;;;;;;;15.52;9.98;;;;;;;;;;5039683;28;20056;-82
2021/12/14 12:10:47;;;;;;;14.70;10.18;;;;;;;;;;5039116;28;20033;-82
2021/12/14 12:13:14;;;;;;;15.35;10.18;;;;;;;;;;5036676;28;20101;-83
2021/12/14 12:15:41;;;;;;;15.20;9.45;;;;;;;;;;5037760;28;20368;-83
2021/12/14 12:18:08;;;;;;;14.85;10.32;;;;;;;;;;5037177;28;20029;-82
2021/12/14 12:20:38;;;;;;;13.43;10.07;;;;;;;;;;5038069;28;20026;-82
2021/12/14 12:23:04;;;;;;;14.23;9.90;;;;;;;;;;5037253;28;20035;-82
2021/12/14 12:25:30;;;;;;;15.68;9.95;;;;;;;;;;5036436;28;20108;-82
2021/12/14 12:28:02;;;;;;;15.07;10.07;;;;;;;;;;5038437;28;20038;-83
2021/12/14 12:30:54;;;;;;;14.73;9.77;;;;;;;;;;5038714;28;20029;-82
2021/12/14 12:33:34;;;;;;;14.77;10.30;;;;;;;;;;5033366;28;20025;-82
2021/12/14 12:36:16;;;;;;;16.75;11.27;;;;;;;;;;5038026;28;20017;-82
2021/12/14 12:38:45;;;;;;;14.27;9.80;;;;;;;;;;5039493;28;20021;-82
2021/12/14 12:41:11;;;;;;;18.52;12.07;;;;;;;;;;5037267;28;20072;-82
2021/12/14 12:43:37;;;;;;;17.65;11.30;;;;;;;;;;5036884;28;20026;-82
2021/12/14 12:46:09;;;;;;;17.55;12.57;;;;;;;;;;5037686;28;20112;-82
2021/12/14 12:48:54;;;;;;;21.05;14.80;;;;;;;;;;5037716;28;20030;-82
2021/12/14 12:51:35;;;;;;;21.58;14.82;;;;;;;;;;5037569;28;20124;-82
2021/12/14 12:54:10;;;;;;;17.45;11.95;;;;;;;;;;5036703;28;20117;-82
2021/12/14 12:56:38;;;;;;;19.13;13.57;;;;;;;;;;5036681;28;20389;-82
2021/12/14 12:59:06;;;;;;;18.85;12.20;;;;;;;;;;5038571;28;20037;-83
2021/12/14 13:01:32;;;;;;;15.48;11.13;;;;;;;;;;5036020;28;20025;-82
2021/12/14 13:03:58;;;;;;;16.25;10.10;;;;;;;;;;5038043;28;20029;-82
2021/12/14 13:06:24;;;;;;;14.93;10.32;;;;;;;;;;5035968;28;20040;-82
2021/12/14 13:08:52;;;;;;;15.38;9.50;;;;;;;;;;5035140;28;20030;-83
2021/12/14 13:11:21;;;;;;;14.10;9.65;;;;;;;;;;5037463;28;20025;-82
2021/12/14 13:13:49;;;;;;;14.27;9.30;;;;;;;;;;5035705;28;20085;-83
2021/12/14 13:16:27;;;;;;;15.70;10.30;;;;;;;;;;5036254;28;20032;-83
2021/12/14 13:19:00;;;;;;;13.43;9.05;;;;;;;;;;5038240;28;20071;-83
2021/12/14 13:21:29;;;;;;;13.52;8.80;;;;;;;;;;5017721;28;20060;-82
2021/12/14 13:23:55;;;;;;;13.77;8.70;;;;;;;;;;5028464;28;20026;-82
2021/12/14 13:26:21;;;;;;;13.95;9.63;;;;;;;;;;5036947;28;20036;-83
2021/12/14 13:28:47;;;;;;;12.48;8.80;;;;;;;;;;5037863;28;20022;-82
2021/12/14 13:31:29;;;;;;;14.00;9.70;;;;;;;;;;5035966;28;20022;-82
2021/12/14 13:33:55;;;;;;;15.32;11.02;;;;;;;;;;5017470;28;20026;-82
2021/12/14 13:36:21;;;;;;;13.15;9.48;;;;;;;;;;5025544;28;20025;-82
2021/12/14 13:38:50;;;;;;;13.05;9.70;;;;;;;;;;5037149;28;20293;-83
2021/12/14 13:41:51;;;;;;;14.32;9.05;;;;;;;;;;5035508;28;20044;-83
2021/12/14 13:44:17;;;;;;;12.57;8.85;;;;;;;;;;4937448;29;20126;-83
2021/12/14 13:46:44;;;;;;;13.48;9.68;;;;;;;;;;5015920;28;20045;-82
2021/12/14 13:49:11;;;;;;;14.68;9.15;;;;;;;;;;5037253;28;20025;-82
2021/12/14 13:51:37;;;;;;;14.15;9.73;;;;;;;;;;5035739;28;20027;-83
2021/12/14 13:54:04;;;;;;;13.30;9.40;;;;;;;;;;5037371;28;20068;-83
2021/12/14 13:56:32;;;;;;;14.88;9.60;;;;;;;;;;5035864;28;20036;-83
2021/12/14 13:58:59;;;;;;;14.02;9.52;;;;;;;;;;5035433;28;20120;-83
2021/12/14 14:01:37;;;;;;;14.07;9.57;;;;;;;;;;5036243;28;20029;-84
2021/12/14 14:04:06;;;;;;;13.82;10.02;;;;;;;;;;5035485;28;20025;-84
2021/12/14 14:06:33;;;;;;;12.43;9.50;;;;;;;;;;5036568;28;20037;-84
2021/12/14 14:09:07;;;;;;;13.60;9.32;;;;;;;;;;5037462;28;20041;-84
2021/12/14 14:11:33;;;;;;;14.57;10.00;;;;;;;;;;5037742;28;20480;-84
2021/12/14 14:14:01;;;;;;;15.85;10.30;;;;;;;;;;5037081;28;20040;-83
2021/12/14 14:16:56;;;;;;;14.05;10.65;;;;;;;;;;5037048;28;20522;-83
2021/12/14 14:19:24;;;;;;;15.45;10.57;;;;;;;;;;5030029;28;20484;-83
2021/12/14 14:21:51;;;;;;;15.60;10.55;;;;;;;;;;5035589;28;20078;-84
2021/12/14 14:24:19;;;;;;;15.68;9.85;;;;;;;;;;5037326;28;20024;-83
2021/12/14 14:26:45;;;;;;;18.30;11.25;;;;;;;;;;5034516;28;20363;-83
2021/12/14 14:29:15;;;;;;;19.15;13.90;;;;;;;;;;5035496;28;20025;-83
2021/12/14 14:31:50;;;;;;;27.52;17.95;;;;;;;;;;5036689;28;20098;-82
2021/12/14 14:34:21;;;;;;;28.67;19.45;;;;;;;;;;5035710;28;20369;-83
2021/12/14 14:36:55;;;;;;;27.85;19.27;;;;;;;;;;5036595;28;20021;-82
2021/12/14 14:39:24;;;;;;;27.27;19.85;;;;;;;;;;5036696;28;20124;-82
2021/12/14 14:41:52;;;;;;;29.58;20.75;;;;;;;;;;5035314;28;20088;-82
2021/12/14 14:44:25;;;;;;;29.85;20.15;;;;;;;;;;5036250;28;20033;-82
2021/12/14 14:46:56;;;;;;;30.60;19.88;;;;;;;;;;5036420;28;20048;-83
2021/12/14 14:49:24;;;;;;;30.88;21.67;;;;;;;;;;5036585;28;20399;-82
2021/12/14 14:51:59;;;;;;;30.85;21.00;;;;;;;;;;5036687;28;20046;-82
2021/12/14 14:54:34;;;;;;;27.90;19.73;;;;;;;;;;5036790;28;20053;-83
2021/12/14 14:57:20;;;;;;;26.65;20.27;;;;;;;;;;5049765;28;20044;-83
2021/12/14 14:59:55;;;;;;;27.80;19.40;;;;;;;;;;5033189;28;20030;-83
2021/12/14 15:02:50;;;;;;;28.17;20.27;;;;;;;;;;5036734;28;20029;-83
2021/12/14 15:05:19;;;;;;;29.45;19.40;;;;;;;;;;5034289;28;20487;-83
2021/12/14 15:08:04;;;;;;;32.85;20.60;;;;;;;;;;5035252;28;20032;-83
2021/12/14 15:10:35;;;;;;;37.83;23.02;;;;;;;;;;5035443;28;20032;-83
2021/12/14 15:13:14;;;;;;;35.08;23.52;;;;;;;;;;5036438;28;20361;-83
2021/12/14 15:15:40;;;;;;;37.13;24.85;;;;;;;;;;5034148;28;20571;-83